sensor_id;sensor_type;location;lat;lon;timestamp;pressure;altitude;pressure_sealevel;temperature
66113;BMP280;52893;52.870;5.822;2023-08-08T00:01:23;101187.69;;;17.00
66113;BMP280;52893;52.870;5.822;2023-08-08T00:03:50;101179.75;;;16.99
66113;BMP280;52893;52.870;5.822;2023-08-08T00:06:17;101173.47;;;16.98
66113;BMP280;52893;52.870;5.822;2023-08-08T00:08:45;101174.16;;;16.95
66113;BMP280;52893;52.870;5.822;2023-08-08T00:11:12;101169.41;;;16.92
66113;BMP280;52893;52.870;5.822;2023-08-08T00:13:40;101171.00;;;16.93
66113;BMP280;52893;52.870;5.822;2023-08-08T00:16:07;101169.41;;;16.92
66113;BMP280;52893;52.870;5.822;2023-08-08T00:18:35;101173.31;;;16.91
66113;BMP280;52893;52.870;5.822;2023-08-08T00:21:03;101166.19;;;16.90
66113;BMP280;52893;52.870;5.822;2023-08-08T00:23:30;101167.34;;;16.89
66113;BMP280;52893;52.870;5.822;2023-08-08T00:25:57;101171.69;;;16.90
66113;BMP280;52893;52.870;5.822;2023-08-08T00:28:24;101159.06;;;16.89
66113;BMP280;52893;52.870;5.822;2023-08-08T00:30:55;101166.53;;;16.89
66113;BMP280;52893;52.870;5.822;2023-08-08T00:33:22;101163.78;;;16.89
66113;BMP280;52893;52.870;5.822;2023-08-08T00:35:49;101165.03;;;16.91
66113;BMP280;52893;52.870;5.822;2023-08-08T00:38:17;101170.19;;;16.93
66113;BMP280;52893;52.870;5.822;2023-08-08T00:40:44;101157.59;;;16.95
66113;BMP280;52893;52.870;5.822;2023-08-08T00:43:11;101159.22;;;16.96
66113;BMP280;52893;52.870;5.822;2023-08-08T00:45:41;101153.69;;;16.96
66113;BMP280;52893;52.870;5.822;2023-08-08T00:48:11;101154.50;;;16.97
66113;BMP280;52893;52.870;5.822;2023-08-08T00:50:42;101159.22;;;16.96
66113;BMP280;52893;52.870;5.822;2023-08-08T00:53:11;101158.06;;;16.97
66113;BMP280;52893;52.870;5.822;2023-08-08T00:55:39;101151.75;;;16.97
66113;BMP280;52893;52.870;5.822;2023-08-08T00:58:07;101152.53;;;16.97
66113;BMP280;52893;52.870;5.822;2023-08-08T01:00:34;101158.06;;;16.97
66113;BMP280;52893;52.870;5.822;2023-08-08T01:03:01;101145.44;;;16.96
66113;BMP280;52893;52.870;5.822;2023-08-08T01:05:43;101150.94;;;16.96
66113;BMP280;52893;52.870;5.822;2023-08-08T01:08:15;101143.47;;;16.97
66113;BMP280;52893;52.870;5.822;2023-08-08T01:10:44;101142.66;;;16.96
66113;BMP280;52893;52.870;5.822;2023-08-08T01:13:16;101139.91;;;16.96
66113;BMP280;52893;52.870;5.822;2023-08-08T01:15:45;101128.88;;;16.96
66113;BMP280;52893;52.870;5.822;2023-08-08T01:18:13;101130.84;;;16.96
66113;BMP280;52893;52.870;5.822;2023-08-08T01:20:43;101122.94;;;16.94
66113;BMP280;52893;52.870;5.822;2023-08-08T01:23:14;101126.88;;;16.93
66113;BMP280;52893;52.870;5.822;2023-08-08T01:25:44;101132.41;;;16.93
66113;BMP280;52893;52.870;5.822;2023-08-08T01:28:12;101127.66;;;16.94
66113;BMP280;52893;52.870;5.822;2023-08-08T01:30:40;101129.63;;;16.93
66113;BMP280;52893;52.870;5.822;2023-08-08T01:33:08;101128.44;;;16.94
66113;BMP280;52893;52.870;5.822;2023-08-08T01:35:37;101128.44;;;16.94
66113;BMP280;52893;52.870;5.822;2023-08-08T01:38:10;101135.53;;;16.95
66113;BMP280;52893;52.870;5.822;2023-08-08T01:40:38;101132.44;;;16.97
66113;BMP280;52893;52.870;5.822;2023-08-08T01:43:08;101133.25;;;16.97
66113;BMP280;52893;52.870;5.822;2023-08-08T01:45:36;101127.72;;;16.97
66113;BMP280;52893;52.870;5.822;2023-08-08T01:48:07;101124.16;;;16.97
66113;BMP280;52893;52.870;5.822;2023-08-08T01:50:34;101130.03;;;16.95
66113;BMP280;52893;52.870;5.822;2023-08-08T01:53:01;101128.44;;;16.94
66113;BMP280;52893;52.870;5.822;2023-08-08T01:55:29;101123.75;;;16.95
66113;BMP280;52893;52.870;5.822;2023-08-08T01:57:57;101128.84;;;16.93
66113;BMP280;52893;52.870;5.822;2023-08-08T02:00:25;101117.41;;;16.94
66113;BMP280;52893;52.870;5.822;2023-08-08T02:02:53;101114.25;;;16.92
66113;BMP280;52893;52.870;5.822;2023-08-08T02:05:20;101122.06;;;16.90
66113;BMP280;52893;52.870;5.822;2023-08-08T02:07:47;101112.56;;;16.88
66113;BMP280;52893;52.870;5.822;2023-08-08T02:10:15;101110.16;;;16.86
66113;BMP280;52893;52.870;5.822;2023-08-08T02:12:42;101104.44;;;16.76
66113;BMP280;52893;52.870;5.822;2023-08-08T02:15:10;101111.16;;;16.78
66113;BMP280;52893;52.870;5.822;2023-08-08T02:17:38;101106.75;;;16.74
66113;BMP280;52893;52.870;5.822;2023-08-08T02:20:07;101101.97;;;16.71
66113;BMP280;52893;52.870;5.822;2023-08-08T02:22:34;101071.72;;;16.55
66113;BMP280;52893;52.870;5.822;2023-08-08T02:25:02;101090.44;;;16.65
66113;BMP280;52893;52.870;5.822;2023-08-08T02:27:30;101087.94;;;16.60
66113;BMP280;52893;52.870;5.822;2023-08-08T02:29:57;101083.19;;;16.57
66113;BMP280;52893;52.870;5.822;2023-08-08T02:32:24;101081.88;;;16.51
66113;BMP280;52893;52.870;5.822;2023-08-08T02:34:55;101086.53;;;16.47
66113;BMP280;52893;52.870;5.822;2023-08-08T02:37:24;101082.44;;;16.41
66113;BMP280;52893;52.870;5.822;2023-08-08T02:39:51;101089.47;;;16.38
66113;BMP280;52893;52.870;5.822;2023-08-08T02:42:19;101083.06;;;16.34
66113;BMP280;52893;52.870;5.822;2023-08-08T02:44:47;101088.50;;;16.31
66113;BMP280;52893;52.870;5.822;2023-08-08T02:47:14;101087.28;;;16.28
66113;BMP280;52893;52.870;5.822;2023-08-08T02:49:42;101087.19;;;16.25
66113;BMP280;52893;52.870;5.822;2023-08-08T02:52:10;101088.34;;;16.24
66113;BMP280;52893;52.870;5.822;2023-08-08T02:54:38;101082.03;;;16.23
66113;BMP280;52893;52.870;5.822;2023-08-08T02:57:05;101083.97;;;16.23
66113;BMP280;52893;52.870;5.822;2023-08-08T02:59:33;101075.72;;;16.23
66113;BMP280;52893;52.870;5.822;2023-08-08T03:02:04;101074.91;;;16.22
66113;BMP280;52893;52.870;5.822;2023-08-08T03:04:34;101074.91;;;16.22
66113;BMP280;52893;52.870;5.822;2023-08-08T03:07:03;101078.06;;;16.21
66113;BMP280;52893;52.870;5.822;2023-08-08T03:09:34;101068.22;;;16.20
66113;BMP280;52893;52.870;5.822;2023-08-08T03:12:01;101080.38;;;16.19
66113;BMP280;52893;52.870;5.822;2023-08-08T03:14:30;101064.66;;;16.19
66113;BMP280;52893;52.870;5.822;2023-08-08T03:16:59;101068.22;;;16.20
66113;BMP280;52893;52.870;5.822;2023-08-08T03:19:26;101067.41;;;16.19
66113;BMP280;52893;52.870;5.822;2023-08-08T03:21:54;101069.34;;;16.19
66113;BMP280;52893;52.870;5.822;2023-08-08T03:24:21;101064.56;;;16.16
66113;BMP280;52893;52.870;5.822;2023-08-08T03:26:50;101064.91;;;16.14
66113;BMP280;52893;52.870;5.822;2023-08-08T03:29:18;101067.66;;;16.14
66113;BMP280;52893;52.870;5.822;2023-08-08T03:31:48;101062.84;;;16.11
66113;BMP280;52893;52.870;5.822;2023-08-08T03:34:16;101060.50;;;16.10
66113;BMP280;52893;52.870;5.822;2023-08-08T03:36:45;101062.81;;;16.08
66113;BMP280;52893;52.870;5.822;2023-08-08T03:39:12;101063.53;;;16.05
66113;BMP280;52893;52.870;5.822;2023-08-08T03:41:39;101057.56;;;16.02
66113;BMP280;52893;52.870;5.822;2023-08-08T03:44:08;101062.63;;;16.00
66113;BMP280;52893;52.870;5.822;2023-08-08T03:46:35;101066.09;;;15.97
66113;BMP280;52893;52.870;5.822;2023-08-08T03:49:02;101060.13;;;15.95
66113;BMP280;52893;52.870;5.822;2023-08-08T03:51:29;101055.00;;;15.94
66113;BMP280;52893;52.870;5.822;2023-08-08T03:53:57;101056.59;;;15.95
66113;BMP280;52893;52.870;5.822;2023-08-08T03:56:24;101050.72;;;15.96
66113;BMP280;52893;52.870;5.822;2023-08-08T03:58:53;101057.84;;;15.97
66113;BMP280;52893;52.870;5.822;2023-08-08T04:01:22;101046.50;;;15.99
66113;BMP280;52893;52.870;5.822;2023-08-08T04:03:49;101035.91;;;16.01
66113;BMP280;52893;52.870;5.822;2023-08-08T04:06:17;101036.78;;;16.05
66113;BMP280;52893;52.870;5.822;2023-08-08T04:08:44;101034.47;;;16.07
66113;BMP280;52893;52.870;5.822;2023-08-08T04:11:12;101041.63;;;16.12
66113;BMP280;52893;52.870;5.822;2023-08-08T04:13:39;101044.03;;;16.13
66113;BMP280;52893;52.870;5.822;2023-08-08T04:16:07;101046.06;;;16.16
66113;BMP280;52893;52.870;5.822;2023-08-08T04:18:35;101050.06;;;16.19
66113;BMP280;52893;52.870;5.822;2023-08-08T04:21:02;101044.19;;;16.20
66113;BMP280;52893;52.870;5.822;2023-08-08T04:23:29;101044.56;;;16.19
66113;BMP280;52893;52.870;5.822;2023-08-08T04:25:57;101045.72;;;16.18
66113;BMP280;52893;52.870;5.822;2023-08-08T04:28:24;101048.03;;;16.16
66113;BMP280;52893;52.870;5.822;2023-08-08T04:30:51;101042.53;;;16.16
66113;BMP280;52893;52.870;5.822;2023-08-08T04:33:18;101037.91;;;16.20
66113;BMP280;52893;52.870;5.822;2023-08-08T04:35:47;101043.41;;;16.20
66113;BMP280;52893;52.870;5.822;2023-08-08T04:38:14;101051.28;;;16.21
66113;BMP280;52893;52.870;5.822;2023-08-08T04:40:42;101049.31;;;16.22
66113;BMP280;52893;52.870;5.822;2023-08-08T04:43:09;101060.78;;;16.24
66113;BMP280;52893;52.870;5.822;2023-08-08T04:45:36;101049.06;;;16.27
66113;BMP280;52893;52.870;5.822;2023-08-08T04:48:04;101045.16;;;16.28
66113;BMP280;52893;52.870;5.822;2023-08-08T04:50:31;101044.00;;;16.29
66113;BMP280;52893;52.870;5.822;2023-08-08T04:53:00;101042.81;;;16.30
66113;BMP280;52893;52.870;5.822;2023-08-08T04:55:27;101029.69;;;16.23
66113;BMP280;52893;52.870;5.822;2023-08-08T04:57:54;101041.16;;;16.25
66113;BMP280;52893;52.870;5.822;2023-08-08T05:00:22;101037.97;;;16.23
66113;BMP280;52893;52.870;5.822;2023-08-08T05:02:49;101033.97;;;16.21
66113;BMP280;52893;52.870;5.822;2023-08-08T05:05:16;101032.41;;;16.20
66113;BMP280;52893;52.870;5.822;2023-08-08T05:07:43;101027.28;;;16.22
66113;BMP280;52893;52.870;5.822;2023-08-08T05:10:12;101019.47;;;16.24
66113;BMP280;52893;52.870;5.822;2023-08-08T05:12:39;101013.50;;;16.22
66113;BMP280;52893;52.870;5.822;2023-08-08T05:15:07;101025.22;;;16.34
66113;BMP280;52893;52.870;5.822;2023-08-08T05:17:34;101021.00;;;16.40
66113;BMP280;52893;52.870;5.822;2023-08-08T05:20:02;101027.47;;;16.48
66113;BMP280;52893;52.870;5.822;2023-08-08T05:22:29;101022.09;;;16.55
66113;BMP280;52893;52.870;5.822;2023-08-08T05:24:56;101025.44;;;16.64
66113;BMP280;52893;52.870;5.822;2023-08-08T05:27:25;101023.16;;;16.70
66113;BMP280;52893;52.870;5.822;2023-08-08T05:29:52;101021.75;;;16.76
66113;BMP280;52893;52.870;5.822;2023-08-08T05:32:19;101034.88;;;16.82
66113;BMP280;52893;52.870;5.822;2023-08-08T05:34:46;101031.00;;;16.87
66113;BMP280;52893;52.870;5.822;2023-08-08T05:37:15;101037.72;;;16.89
66113;BMP280;52893;52.870;5.822;2023-08-08T05:39:42;101034.53;;;16.87
66113;BMP280;52893;52.870;5.822;2023-08-08T05:42:09;101036.50;;;16.87
66113;BMP280;52893;52.870;5.822;2023-08-08T05:44:37;101038.47;;;16.86
66113;BMP280;52893;52.870;5.822;2023-08-08T05:47:05;101041.22;;;16.86
66113;BMP280;52893;52.870;5.822;2023-08-08T05:49:33;101034.53;;;16.87
66113;BMP280;52893;52.870;5.822;2023-08-08T05:52:01;101036.13;;;16.88
66113;BMP280;52893;52.870;5.822;2023-08-08T05:54:28;101034.63;;;16.91
66113;BMP280;52893;52.870;5.822;2023-08-08T05:56:55;101046.44;;;16.91
66113;BMP280;52893;52.870;5.822;2023-08-08T05:59:22;101037.03;;;16.92
66113;BMP280;52893;52.870;5.822;2023-08-08T06:01:51;101043.38;;;16.96
66113;BMP280;52893;52.870;5.822;2023-08-08T06:04:18;101045.84;;;17.01
66113;BMP280;52893;52.870;5.822;2023-08-08T06:06:46;101049.91;;;17.08
66113;BMP280;52893;52.870;5.822;2023-08-08T06:09:14;101044.44;;;17.11
66113;BMP280;52893;52.870;5.822;2023-08-08T06:11:42;101048.50;;;17.17
66113;BMP280;52893;52.870;5.822;2023-08-08T06:14:09;101047.41;;;17.22
66113;BMP280;52893;52.870;5.822;2023-08-08T06:16:36;101054.22;;;17.28
66113;BMP280;52893;52.870;5.822;2023-08-08T06:19:05;101049.94;;;17.34
66113;BMP280;52893;52.870;5.822;2023-08-08T06:21:32;101042.19;;;17.39
66113;BMP280;52893;52.870;5.822;2023-08-08T06:23:59;101039.47;;;17.43
66113;BMP280;52893;52.870;5.822;2023-08-08T06:26:26;101040.34;;;17.47
66113;BMP280;52893;52.870;5.822;2023-08-08T06:28:53;101025.81;;;17.50
66113;BMP280;52893;52.870;5.822;2023-08-08T06:31:20;101033.69;;;17.51
66113;BMP280;52893;52.870;5.822;2023-08-08T06:33:48;101030.19;;;17.54
66113;BMP280;52893;52.870;5.822;2023-08-08T06:36:16;101039.34;;;17.58
66113;BMP280;52893;52.870;5.822;2023-08-08T06:38:43;101041.78;;;17.64
66113;BMP280;52893;52.870;5.822;2023-08-08T06:41:26;101042.63;;;17.68
66113;BMP280;52893;52.870;5.822;2023-08-08T06:43:53;101041.13;;;17.70
66113;BMP280;52893;52.870;5.822;2023-08-08T06:46:20;101048.25;;;17.75
66113;BMP280;52893;52.870;5.822;2023-08-08T06:48:50;101049.59;;;17.84
66113;BMP280;52893;52.870;5.822;2023-08-08T06:51:20;101043.75;;;17.89
66113;BMP280;52893;52.870;5.822;2023-08-08T06:53:50;101052.19;;;18.00
66113;BMP280;52893;52.870;5.822;2023-08-08T06:56:18;101031.50;;;18.17
66113;BMP280;52893;52.870;5.822;2023-08-08T06:58:45;101037.66;;;18.33
66113;BMP280;52893;52.870;5.822;2023-08-08T07:01:12;101037.72;;;18.40
66113;BMP280;52893;52.870;5.822;2023-08-08T07:03:40;101036.19;;;18.42
66113;BMP280;52893;52.870;5.822;2023-08-08T07:06:07;101028.69;;;18.43
66113;BMP280;52893;52.870;5.822;2023-08-08T07:08:36;101041.72;;;18.46
66113;BMP280;52893;52.870;5.822;2023-08-08T07:11:05;101034.66;;;18.48
66113;BMP280;52893;52.870;5.822;2023-08-08T07:13:32;101035.78;;;18.44
66113;BMP280;52893;52.870;5.822;2023-08-08T07:16:00;101039.66;;;18.39
66113;BMP280;52893;52.870;5.822;2023-08-08T07:18:27;101035.69;;;18.37
66113;BMP280;52893;52.870;5.822;2023-08-08T07:20:54;101041.22;;;18.37
66113;BMP280;52893;52.870;5.822;2023-08-08T07:23:22;101039.25;;;18.37
66113;BMP280;52893;52.870;5.822;2023-08-08T07:25:51;101036.50;;;18.37
66113;BMP280;52893;52.870;5.822;2023-08-08T07:28:18;101035.69;;;18.37
66113;BMP280;52893;52.870;5.822;2023-08-08T07:30:45;101036.88;;;18.36
66113;BMP280;52893;52.870;5.822;2023-08-08T07:33:12;101029.38;;;18.36
66113;BMP280;52893;52.870;5.822;2023-08-08T07:35:40;101029.75;;;18.35
66113;BMP280;52893;52.870;5.822;2023-08-08T07:38:07;101032.94;;;18.37
66113;BMP280;52893;52.870;5.822;2023-08-08T07:40:35;101030.25;;;18.44
66113;BMP280;52893;52.870;5.822;2023-08-08T07:43:04;101034.31;;;18.53
66113;BMP280;52893;52.870;5.822;2023-08-08T07:45:31;101036.44;;;18.63
66113;BMP280;52893;52.870;5.822;2023-08-08T07:47:58;101039.63;;;18.69
66113;BMP280;52893;52.870;5.822;2023-08-08T07:50:26;101040.50;;;18.77
66113;BMP280;52893;52.870;5.822;2023-08-08T07:52:53;101042.13;;;18.81
66113;BMP280;52893;52.870;5.822;2023-08-08T07:55:20;101037.06;;;18.87
66113;BMP280;52893;52.870;5.822;2023-08-08T07:57:47;101032.75;;;18.89
66113;BMP280;52893;52.870;5.822;2023-08-08T08:00:17;101034.31;;;18.90
66113;BMP280;52893;52.870;5.822;2023-08-08T08:02:45;101037.53;;;18.92
66113;BMP280;52893;52.870;5.822;2023-08-08T08:05:12;101024.78;;;18.84
66113;BMP280;52893;52.870;5.822;2023-08-08T08:07:40;101020.41;;;18.80
66113;BMP280;52893;52.870;5.822;2023-08-08T08:10:10;101032.59;;;18.75
66113;BMP280;52893;52.870;5.822;2023-08-08T08:12:40;101026.25;;;18.75
66113;BMP280;52893;52.870;5.822;2023-08-08T08:15:08;101031.84;;;18.78
66113;BMP280;52893;52.870;5.822;2023-08-08T08:17:37;101021.19;;;18.80
66113;BMP280;52893;52.870;5.822;2023-08-08T08:20:06;101026.34;;;18.85
66113;BMP280;52893;52.870;5.822;2023-08-08T08:22:36;101018.50;;;18.87
66113;BMP280;52893;52.870;5.822;2023-08-08T08:25:04;101016.88;;;18.86
66113;BMP280;52893;52.870;5.822;2023-08-08T08:27:33;101016.78;;;18.76
66113;BMP280;52893;52.870;5.822;2023-08-08T08:30:00;101022.69;;;18.71
66113;BMP280;52893;52.870;5.822;2023-08-08T08:32:31;101011.41;;;18.90
66113;BMP280;52893;52.870;5.822;2023-08-08T08:35:00;101017.16;;;19.14
66113;BMP280;52893;52.870;5.822;2023-08-08T08:37:28;101020.88;;;19.29
66113;BMP280;52893;52.870;5.822;2023-08-08T08:39:55;101007.06;;;19.36
66113;BMP280;52893;52.870;5.822;2023-08-08T08:42:23;101017.38;;;19.43
66113;BMP280;52893;52.870;5.822;2023-08-08T08:44:51;101015.72;;;19.35
66113;BMP280;52893;52.870;5.822;2023-08-08T08:47:20;101005.31;;;19.17
66113;BMP280;52893;52.870;5.822;2023-08-08T08:49:47;101022.41;;;19.30
66113;BMP280;52893;52.870;5.822;2023-08-08T08:52:16;101011.16;;;19.60
66113;BMP280;52893;52.870;5.822;2023-08-08T08:54:44;101007.34;;;19.82
66113;BMP280;52893;52.870;5.822;2023-08-08T08:57:11;101015.72;;;19.96
66113;BMP280;52893;52.870;5.822;2023-08-08T08:59:39;101007.84;;;20.02
66113;BMP280;52893;52.870;5.822;2023-08-08T09:02:07;101014.53;;;19.97
66113;BMP280;52893;52.870;5.822;2023-08-08T09:04:34;101014.63;;;20.18
66113;BMP280;52893;52.870;5.822;2023-08-08T09:07:02;101012.34;;;20.45
66113;BMP280;52893;52.870;5.822;2023-08-08T09:09:34;101020.69;;;20.42
66113;BMP280;52893;52.870;5.822;2023-08-08T09:12:03;101018.84;;;19.88
66113;BMP280;52893;52.870;5.822;2023-08-08T09:14:31;101025.50;;;19.18
66113;BMP280;52893;52.870;5.822;2023-08-08T09:16:58;101023.41;;;18.67
66113;BMP280;52893;52.870;5.822;2023-08-08T09:19:26;101029.34;;;18.66
66113;BMP280;52893;52.870;5.822;2023-08-08T09:21:53;101027.22;;;18.89
66113;BMP280;52893;52.870;5.822;2023-08-08T09:24:39;101024.97;;;19.05
66113;BMP280;52893;52.870;5.822;2023-08-08T09:27:07;101018.56;;;19.38
66113;BMP280;52893;52.870;5.822;2023-08-08T09:29:34;101034.09;;;19.57
66113;BMP280;52893;52.870;5.822;2023-08-08T09:32:02;101028.16;;;19.58
66113;BMP280;52893;52.870;5.822;2023-08-08T09:34:30;101021.03;;;19.54
66113;BMP280;52893;52.870;5.822;2023-08-08T09:36:57;101024.94;;;19.46
66113;BMP280;52893;52.870;5.822;2023-08-08T09:39:24;101010.81;;;19.65
66113;BMP280;52893;52.870;5.822;2023-08-08T09:41:53;101021.47;;;19.63
66113;BMP280;52893;52.870;5.822;2023-08-08T09:44:23;101019.84;;;19.55
66113;BMP280;52893;52.870;5.822;2023-08-08T09:46:50;101018.84;;;19.91
66113;BMP280;52893;52.870;5.822;2023-08-08T09:49:18;101024.16;;;20.24
66113;BMP280;52893;52.870;5.822;2023-08-08T09:51:46;101025.72;;;20.18
66113;BMP280;52893;52.870;5.822;2023-08-08T09:54:13;101030.38;;;19.93
66113;BMP280;52893;52.870;5.822;2023-08-08T09:56:42;101034.38;;;20.06
66113;BMP280;52893;52.870;5.822;2023-08-08T09:59:11;101032.22;;;20.58
66113;BMP280;52893;52.870;5.822;2023-08-08T10:01:40;101033.81;;;20.66
66113;BMP280;52893;52.870;5.822;2023-08-08T10:04:08;101042.03;;;20.38
66113;BMP280;52893;52.870;5.822;2023-08-08T10:06:36;101047.47;;;20.13
66113;BMP280;52893;52.870;5.822;2023-08-08T10:09:04;101034.47;;;20.20
66113;BMP280;52893;52.870;5.822;2023-08-08T10:11:33;101048.63;;;20.01
66113;BMP280;52893;52.870;5.822;2023-08-08T10:14:02;101045.28;;;19.78
66113;BMP280;52893;52.870;5.822;2023-08-08T10:16:33;101046.78;;;19.58
66113;BMP280;52893;52.870;5.822;2023-08-08T10:19:02;101054.72;;;19.63
66113;BMP280;52893;52.870;5.822;2023-08-08T10:21:33;101040.19;;;19.87
66113;BMP280;52893;52.870;5.822;2023-08-08T10:24:02;101041.44;;;19.97
66113;BMP280;52893;52.870;5.822;2023-08-08T10:26:29;101040.19;;;19.80
66113;BMP280;52893;52.870;5.822;2023-08-08T10:28:59;101046.78;;;19.58
66113;BMP280;52893;52.870;5.822;2023-08-08T10:31:27;101043.78;;;19.84
66113;BMP280;52893;52.870;5.822;2023-08-08T10:34:03;101044.72;;;20.13
66113;BMP280;52893;52.870;5.822;2023-08-08T10:36:44;101042.38;;;20.25
66113;BMP280;52893;52.870;5.822;2023-08-08T10:39:15;101049.59;;;20.48
66113;BMP280;52893;52.870;5.822;2023-08-08T10:41:47;101045.72;;;21.09
66113;BMP280;52893;52.870;5.822;2023-08-08T10:44:21;101031.41;;;21.52
66113;BMP280;52893;52.870;5.822;2023-08-08T10:46:50;101040.94;;;21.62
66113;BMP280;52893;52.870;5.822;2023-08-08T10:49:19;101046.00;;;21.85
66113;BMP280;52893;52.870;5.822;2023-08-08T10:51:48;101044.09;;;21.68
66113;BMP280;52893;52.870;5.822;2023-08-08T10:54:16;101043.31;;;21.28
66113;BMP280;52893;52.870;5.822;2023-08-08T10:56:48;101045.31;;;21.38
66113;BMP280;52893;52.870;5.822;2023-08-08T10:59:16;101035.03;;;21.35
66113;BMP280;52893;52.870;5.822;2023-08-08T11:01:48;101043.78;;;20.99
66113;BMP280;52893;52.870;5.822;2023-08-08T11:04:18;101039.28;;;20.45
66113;BMP280;52893;52.870;5.822;2023-08-08T11:06:47;101060.53;;;20.12
66113;BMP280;52893;52.870;5.822;2023-08-08T11:09:16;101050.13;;;19.88
66113;BMP280;52893;52.870;5.822;2023-08-08T11:11:44;101053.09;;;19.58
66113;BMP280;52893;52.870;5.822;2023-08-08T11:14:13;101045.44;;;19.41
66113;BMP280;52893;52.870;5.822;2023-08-08T11:16:40;101053.31;;;19.36
66113;BMP280;52893;52.870;5.822;2023-08-08T11:19:08;101050.72;;;19.57
66113;BMP280;52893;52.870;5.822;2023-08-08T11:21:37;101061.16;;;19.81
66113;BMP280;52893;52.870;5.822;2023-08-08T11:24:07;101050.88;;;19.82
66113;BMP280;52893;52.870;5.822;2023-08-08T11:26:35;101051.84;;;20.14
66113;BMP280;52893;52.870;5.822;2023-08-08T11:29:04;101057.53;;;20.53
66113;BMP280;52893;52.870;5.822;2023-08-08T11:31:32;101057.59;;;20.77
66113;BMP280;52893;52.870;5.822;2023-08-08T11:33:59;101052.09;;;20.99
66113;BMP280;52893;52.870;5.822;2023-08-08T11:36:29;101050.50;;;21.08
66113;BMP280;52893;52.870;5.822;2023-08-08T11:38:57;101055.25;;;21.11
66113;BMP280;52893;52.870;5.822;2023-08-08T11:41:26;101046.94;;;21.11
66113;BMP280;52893;52.870;5.822;2023-08-08T11:43:53;101048.91;;;21.18
66113;BMP280;52893;52.870;5.822;2023-08-08T11:46:23;101053.63;;;21.52
66113;BMP280;52893;52.870;5.822;2023-08-08T11:48:51;101048.47;;;21.62
66113;BMP280;52893;52.870;5.822;2023-08-08T11:51:18;101041.72;;;21.63
66113;BMP280;52893;52.870;5.822;2023-08-08T11:53:48;101049.66;;;21.64
66113;BMP280;52893;52.870;5.822;2023-08-08T11:56:17;101045.63;;;21.86
66113;BMP280;52893;52.870;5.822;2023-08-08T11:58:47;101047.94;;;22.09
66113;BMP280;52893;52.870;5.822;2023-08-08T12:01:16;101039.53;;;22.20
66113;BMP280;52893;52.870;5.822;2023-08-08T12:03:46;101048.19;;;22.39
66113;BMP280;52893;52.870;5.822;2023-08-08T12:06:13;101055.00;;;22.28
66113;BMP280;52893;52.870;5.822;2023-08-08T12:08:42;101039.03;;;22.35
66113;BMP280;52893;52.870;5.822;2023-08-08T12:11:11;101051.66;;;22.50
66113;BMP280;52893;52.870;5.822;2023-08-08T12:13:40;101047.09;;;22.78
66113;BMP280;52893;52.870;5.822;2023-08-08T12:16:10;101054.09;;;23.00
66113;BMP280;52893;52.870;5.822;2023-08-08T12:18:39;101054.91;;;22.97
66113;BMP280;52893;52.870;5.822;2023-08-08T12:21:07;101047.56;;;22.69
66113;BMP280;52893;52.870;5.822;2023-08-08T12:23:36;101049.28;;;22.52
66113;BMP280;52893;52.870;5.822;2023-08-08T12:26:04;101038.69;;;22.26
66113;BMP280;52893;52.870;5.822;2023-08-08T12:28:32;101051.72;;;22.43
66113;BMP280;52893;52.870;5.822;2023-08-08T12:30:59;101060.81;;;22.51
66113;BMP280;52893;52.870;5.822;2023-08-08T12:33:28;101061.97;;;22.53
66113;BMP280;52893;52.870;5.822;2023-08-08T12:35:56;101051.69;;;22.47
66113;BMP280;52893;52.870;5.822;2023-08-08T12:38:23;101041.19;;;22.10
66113;BMP280;52893;52.870;5.822;2023-08-08T12:40:51;101057.56;;;21.69
66113;BMP280;52893;52.870;5.822;2023-08-08T12:43:18;101060.03;;;21.35
66113;BMP280;52893;52.870;5.822;2023-08-08T12:45:45;101053.66;;;21.00
66113;BMP280;52893;52.870;5.822;2023-08-08T12:48:13;101066.28;;;20.72
66113;BMP280;52893;52.870;5.822;2023-08-08T12:50:42;101054.31;;;20.44
66113;BMP280;52893;52.870;5.822;2023-08-08T12:53:09;101066.97;;;20.34
66113;BMP280;52893;52.870;5.822;2023-08-08T12:55:36;101060.59;;;20.33
66113;BMP280;52893;52.870;5.822;2023-08-08T12:58:05;101066.56;;;20.28
66113;BMP280;52893;52.870;5.822;2023-08-08T13:00:32;101060.97;;;20.14
66113;BMP280;52893;52.870;5.822;2023-08-08T13:02:59;101066.38;;;19.97
66113;BMP280;52893;52.870;5.822;2023-08-08T13:05:26;101067.13;;;19.83
66113;BMP280;52893;52.870;5.822;2023-08-08T13:07:55;101071.84;;;19.83
66113;BMP280;52893;52.870;5.822;2023-08-08T13:10:22;101065.59;;;19.96
66113;BMP280;52893;52.870;5.822;2023-08-08T13:12:49;101069.19;;;20.00
66113;BMP280;52893;52.870;5.822;2023-08-08T13:15:17;101067.91;;;19.84
66113;BMP280;52893;52.870;5.822;2023-08-08T13:17:44;101082.44;;;19.70
66113;BMP280;52893;52.870;5.822;2023-08-08T13:20:11;101081.28;;;19.67
66113;BMP280;52893;52.870;5.822;2023-08-08T13:22:39;101083.25;;;19.67
66113;BMP280;52893;52.870;5.822;2023-08-08T13:25:10;101072.97;;;19.71
66113;BMP280;52893;52.870;5.822;2023-08-08T13:27:38;101069.97;;;19.94
66113;BMP280;52893;52.870;5.822;2023-08-08T13:30:06;101070.88;;;20.12
66113;BMP280;52893;52.870;5.822;2023-08-08T13:32:33;101070.91;;;20.22
66113;BMP280;52893;52.870;5.822;2023-08-08T13:35:01;101086.78;;;20.29
66113;BMP280;52893;52.870;5.822;2023-08-08T13:37:28;101077.25;;;20.33
66113;BMP280;52893;52.870;5.822;2023-08-08T13:39:55;101084.47;;;20.52
66113;BMP280;52893;52.870;5.822;2023-08-08T13:42:24;101087.69;;;20.68
66113;BMP280;52893;52.870;5.822;2023-08-08T13:44:51;101083.75;;;20.73
66113;BMP280;52893;52.870;5.822;2023-08-08T13:47:18;101094.06;;;20.69
66113;BMP280;52893;52.870;5.822;2023-08-08T13:49:46;101086.88;;;20.54
66113;BMP280;52893;52.870;5.822;2023-08-08T13:52:13;101095.50;;;20.38
66113;BMP280;52893;52.870;5.822;2023-08-08T13:54:40;101101.47;;;20.33
66113;BMP280;52893;52.870;5.822;2023-08-08T13:57:07;101101.78;;;20.24
66113;BMP280;52893;52.870;5.822;2023-08-08T13:59:36;101104.50;;;20.10
66113;BMP280;52893;52.870;5.822;2023-08-08T14:02:03;101103.22;;;19.94